CheckWX is a tool to help pilots better visualize weather data.  It is not intended as a substitute for an official pre-flight weather briefing.

00:30:33 UTC

KBJJ METAR
Wayne County Airport
Wooster, Ohio, USA
Current

35 mins ago

KBJJ 162356Z AUTO 36006KT 10SM CLR 21/18 A3008 RMK AO2 SLP182 T02110178 10278 20211 53009
Observed
Sep-16 @ 23:56 UTC
Wind
  • 360° at 6 KTS
Visibility
10 SM
Flight Rules
VFR
Cloud Levels
  • Clear skies
Temperature
21°C / 70°F
Dewpoint
18°C / 64°F
Humidity
83%
Altimeter
30.08" Hg
Pressure
1018.62 hPa
Previous

2 hours ago

KBJJ 162256Z AUTO 36008KT 10SM CLR 24/18 A3007 RMK AO2 SLP177 T02390178
Observed
Sep-16 @ 22:56 UTC
Wind
  • 360° at 8 KTS
Visibility
10 SM
Flight Rules
VFR
Cloud Levels
  • Clear skies
Temperature
24°C / 75°F
Dewpoint
18°C / 64°F
Humidity
69%
Altimeter
30.07" Hg
Pressure
1018.32 hPa
Previous

3 hours ago

KBJJ 162156Z AUTO 34009KT 10SM CLR 26/18 A3006 RMK AO2 SLP172 T02560178
Observed
Sep-16 @ 21:56 UTC
Wind
  • 340° at 9 KTS
Visibility
10 SM
Flight Rules
VFR
Cloud Levels
  • Clear skies
Temperature
26°C / 79°F
Dewpoint
18°C / 64°F
Humidity
61%
Altimeter
30.06" Hg
Pressure
1017.92 hPa